createdAt,value
2022-10-04T00:00:38.409Z,10.72
2022-10-04T00:02:46.813Z,10.73
2022-10-04T00:04:52.813Z,10.74
2022-10-04T00:06:59.685Z,10.77
2022-10-04T00:09:26.346Z,10.75
2022-10-04T00:11:35.395Z,10.77
2022-10-04T00:13:38.347Z,10.77
2022-10-04T00:15:39.984Z,10.75
2022-10-04T00:17:41.565Z,10.74
2022-10-04T00:19:47.044Z,10.74
2022-10-04T00:22:12.558Z,10.73
2022-10-04T00:24:22.228Z,10.74
2022-10-04T00:26:23.624Z,10.74
2022-10-04T00:28:25.233Z,10.76
2022-10-04T00:30:36.897Z,10.76
2022-10-04T00:32:41.384Z,10.80
2022-10-04T00:34:49.588Z,10.79
2022-10-04T00:36:59.905Z,10.79
2022-10-04T00:39:06.984Z,10.80
2022-10-04T00:41:09.347Z,10.79
2022-10-04T00:43:23.177Z,10.79
2022-10-04T00:45:33.715Z,10.78
2022-10-04T00:47:57.980Z,10.76
2022-10-04T00:50:18.810Z,10.74
2022-10-04T00:52:25.809Z,10.73
2022-10-04T00:54:34.706Z,10.76
2022-10-04T00:56:43.602Z,10.76
2022-10-04T00:59:03.345Z,10.79
2022-10-04T01:01:05.157Z,10.79
2022-10-04T01:03:22.003Z,10.80
2022-10-04T01:05:29.540Z,10.79
2022-10-04T01:07:38.054Z,10.78
2022-10-04T01:09:50.608Z,10.80
2022-10-04T01:12:03.528Z,10.77
2022-10-04T01:14:27.745Z,10.79
2022-10-04T01:16:33.645Z,10.78
2022-10-04T01:18:36.706Z,10.77
2022-10-04T01:21:00.053Z,10.76
2022-10-04T01:23:03.432Z,10.73
2022-10-04T01:25:05.517Z,10.75
2022-10-04T01:27:34.074Z,10.77
2022-10-04T01:29:35.691Z,10.70
2022-10-04T01:31:41.085Z,10.75
2022-10-04T01:33:42.793Z,10.77
2022-10-04T01:35:44.824Z,10.79
2022-10-04T01:37:46.532Z,10.79
2022-10-04T01:39:48.077Z,10.81
2022-10-04T01:41:55.546Z,10.81
2022-10-04T01:44:03.572Z,10.82
2022-10-04T01:46:12.446Z,10.82
2022-10-04T01:48:22.362Z,10.83
2022-10-04T01:50:35.573Z,10.85
2022-10-04T01:52:43.887Z,10.85
2022-10-04T01:54:52.722Z,10.84
2022-10-04T01:56:58.366Z,10.78
2022-10-04T01:59:07.108Z,10.78
2022-10-04T02:01:30.702Z,10.73
2022-10-04T02:03:32.410Z,10.73
2022-10-04T02:05:38.505Z,10.74
2022-10-04T02:07:42.117Z,10.75
2022-10-04T02:09:47.800Z,10.77
2022-10-04T02:11:54.080Z,10.77
2022-10-04T02:13:56.004Z,10.78
2022-10-04T02:15:59.144Z,10.75
2022-10-04T02:18:02.024Z,10.74
2022-10-04T02:20:11.776Z,10.77
2022-10-04T02:22:13.631Z,10.75
2022-10-04T02:24:15.879Z,10.77
2022-10-04T02:26:17.347Z,10.76
2022-10-04T02:28:19.092Z,10.75
2022-10-04T02:30:20.686Z,10.74
2022-10-04T02:32:40.828Z,10.74
2022-10-04T02:34:42.475Z,10.73
2022-10-04T02:36:43.967Z,10.73
2022-10-04T02:38:55.875Z,10.72
2022-10-04T02:41:32.288Z,10.69
2022-10-04T02:43:51.889Z,10.68
2022-10-04T02:46:26.186Z,10.65
2022-10-04T02:48:33.939Z,10.63
2022-10-04T02:50:41.053Z,10.61
2022-10-04T02:52:46.356Z,10.60
2022-10-04T02:55:09.611Z,10.59
2022-10-04T02:57:19.242Z,10.58
2022-10-04T02:59:22.086Z,10.58
2022-10-04T03:01:40.242Z,10.59
2022-10-04T03:03:46.433Z,10.58
2022-10-04T03:05:59.938Z,10.58
2022-10-04T03:08:01.776Z,10.56
2022-10-04T03:10:08.903Z,10.57
2022-10-04T03:12:12.590Z,10.56
2022-10-04T03:14:18.870Z,10.56
2022-10-04T03:16:21.714Z,10.55
2022-10-04T03:18:24.334Z,10.55
2022-10-04T03:20:26.198Z,10.52
2022-10-04T03:22:27.710Z,10.52
2022-10-04T03:24:33.569Z,10.53
2022-10-04T03:26:54.289Z,10.52
2022-10-04T03:28:58.189Z,10.53
2022-10-04T03:30:59.927Z,10.54
2022-10-04T03:33:02.200Z,10.54
2022-10-04T03:35:07.884Z,10.55
2022-10-04T03:37:16.312Z,10.56
2022-10-04T03:39:27.600Z,10.56
2022-10-04T03:41:29.116Z,10.53
2022-10-04T03:43:34.186Z,10.51
2022-10-04T03:45:35.772Z,10.48
2022-10-04T03:47:40.719Z,10.48
2022-10-04T03:49:48.616Z,10.44
2022-10-04T03:51:52.717Z,10.41
2022-10-04T03:53:57.366Z,10.38
2022-10-04T03:56:04.002Z,10.34
2022-10-04T03:58:09.260Z,10.32
2022-10-04T04:00:16.986Z,10.33
2022-10-04T04:02:29.997Z,10.33
2022-10-04T04:04:43.009Z,10.34
2022-10-04T04:07:02.415Z,10.33
2022-10-04T04:09:06.558Z,10.34
2022-10-04T04:11:19.987Z,10.35
2022-10-04T04:13:33.363Z,10.37
2022-10-04T04:15:35.121Z,10.39
2022-10-04T04:17:41.579Z,10.39
2022-10-04T04:19:44.118Z,10.42
2022-10-04T04:21:46.573Z,10.42
2022-10-04T04:23:59.743Z,10.41
2022-10-04T04:26:19.976Z,10.38
2022-10-04T04:28:33.904Z,10.39
2022-10-04T04:30:38.855Z,10.39
2022-10-04T04:32:44.597Z,10.41
2022-10-04T04:34:52.856Z,10.41
2022-10-04T04:37:01.604Z,10.40
2022-10-04T04:39:27.978Z,10.33
2022-10-04T04:41:35.252Z,10.36
2022-10-04T04:43:36.803Z,10.35
2022-10-04T04:45:38.588Z,10.35
2022-10-04T04:47:44.733Z,10.36
2022-10-04T04:49:46.260Z,10.36
2022-10-04T04:51:51.819Z,10.37
2022-10-04T04:53:55.417Z,10.37
2022-10-04T04:56:03.830Z,10.36
2022-10-04T04:58:08.595Z,10.33
2022-10-04T05:00:18.213Z,10.33
2022-10-04T05:02:35.790Z,10.34
2022-10-04T05:04:37.338Z,10.34
2022-10-04T05:06:45.213Z,10.36
2022-10-04T05:08:50.338Z,10.35
2022-10-04T05:10:58.340Z,10.35
2022-10-04T05:13:01.981Z,10.32
2022-10-04T05:15:03.768Z,10.30
2022-10-04T05:17:06.199Z,10.30
2022-10-04T05:19:14.014Z,10.27
2022-10-04T05:21:23.848Z,10.24
2022-10-04T05:23:25.641Z,10.21
2022-10-04T05:25:33.501Z,10.20
2022-10-04T05:27:38.049Z,10.19
2022-10-04T05:29:47.451Z,10.17
2022-10-04T05:32:25.967Z,10.15
2022-10-04T05:34:29.047Z,10.04
2022-10-04T05:36:50.610Z,10.05
2022-10-04T05:39:06.084Z,10.03
2022-10-04T05:41:17.756Z,10.00
2022-10-04T05:43:35.434Z,9.95
2022-10-04T05:45:36.982Z,9.94
2022-10-04T05:47:42.401Z,9.94
2022-10-04T05:49:46.304Z,9.95
2022-10-04T05:51:49.102Z,9.96
2022-10-04T05:53:51.122Z,9.98
2022-10-04T05:55:55.280Z,10.00
2022-10-04T05:58:09.028Z,10.01
2022-10-04T06:00:20.861Z,10.02
2022-10-04T06:02:50.122Z,10.04
2022-10-04T06:05:08.299Z,10.04
2022-10-04T06:07:19.910Z,10.05
2022-10-04T06:09:30.084Z,10.06
2022-10-04T06:11:43.172Z,10.09
2022-10-04T06:13:55.113Z,10.10
2022-10-04T06:16:11.994Z,10.11
2022-10-04T06:18:28.999Z,10.14
2022-10-04T06:21:07.737Z,10.17
2022-10-04T06:23:19.218Z,10.19
2022-10-04T06:25:37.161Z,10.19
2022-10-04T06:27:45.563Z,10.19
2022-10-04T06:29:55.236Z,10.21
2022-10-04T06:32:35.672Z,10.24
2022-10-04T06:34:46.133Z,10.26
2022-10-04T06:37:22.793Z,10.28
2022-10-04T06:39:52.235Z,10.30
2022-10-04T06:42:26.335Z,10.32
2022-10-04T06:44:54.344Z,10.36
2022-10-04T06:47:23.844Z,10.39
2022-10-04T06:49:53.188Z,10.45
2022-10-04T06:52:03.728Z,10.49
2022-10-04T06:54:08.146Z,10.53
2022-10-04T06:56:12.694Z,10.60
2022-10-04T06:58:33.182Z,10.66
2022-10-04T07:00:51.724Z,10.73
2022-10-04T07:02:57.990Z,10.78
2022-10-04T07:05:09.435Z,10.83
2022-10-04T07:07:35.665Z,10.88
2022-10-04T07:09:40.824Z,10.94
2022-10-04T07:11:51.194Z,11.02
2022-10-04T07:14:33.007Z,11.08
2022-10-04T07:16:43.941Z,11.18
2022-10-04T07:18:54.323Z,11.26
2022-10-04T07:21:06.306Z,11.34
2022-10-04T07:23:15.813Z,11.41
2022-10-04T07:25:30.395Z,11.50
2022-10-04T07:28:15.018Z,11.58
2022-10-04T07:30:20.225Z,11.64
2022-10-04T07:32:28.884Z,11.72
2022-10-04T07:34:35.300Z,11.78
2022-10-04T07:36:53.939Z,11.85
2022-10-04T07:38:59.516Z,11.90
2022-10-04T07:41:23.166Z,11.96
2022-10-04T07:43:32.430Z,12.02
2022-10-04T07:45:39.824Z,12.09
2022-10-04T07:47:43.090Z,12.19
2022-10-04T07:49:44.569Z,12.28
2022-10-04T07:52:19.342Z,12.37
2022-10-04T07:54:44.794Z,12.47
2022-10-04T07:56:58.215Z,12.53
2022-10-04T07:59:17.979Z,12.56
2022-10-04T08:01:53.476Z,12.56
2022-10-04T08:04:41.786Z,12.63
2022-10-04T08:06:56.412Z,12.70
2022-10-04T08:09:32.630Z,12.78
2022-10-04T08:11:49.618Z,12.84
2022-10-04T08:13:59.104Z,12.92
2022-10-04T08:16:04.586Z,12.99
2022-10-04T08:18:06.103Z,13.02
2022-10-04T08:20:27.736Z,13.01
2022-10-04T08:22:52.261Z,13.03
2022-10-04T08:25:05.933Z,13.07
2022-10-04T08:27:34.584Z,13.16
2022-10-04T08:29:44.964Z,13.27
2022-10-04T08:32:14.199Z,13.36
2022-10-04T08:34:45.586Z,13.41
2022-10-04T08:37:17.760Z,13.46
2022-10-04T08:39:38.091Z,13.52
2022-10-04T08:42:04.759Z,13.63
2022-10-04T08:44:18.068Z,13.74
2022-10-04T08:46:53.700Z,13.88
2022-10-04T08:49:21.146Z,14.00
2022-10-04T08:51:37.581Z,14.14
2022-10-04T08:54:11.473Z,14.27
2022-10-04T08:56:27.320Z,14.36
2022-10-04T08:59:00.342Z,14.44
2022-10-04T09:01:25.534Z,14.52
2022-10-04T09:03:42.253Z,14.60
2022-10-04T09:05:56.795Z,14.62
2022-10-04T09:08:35.847Z,14.71
2022-10-04T09:11:21.944Z,14.81
2022-10-04T09:13:46.611Z,14.79
2022-10-04T09:15:52.960Z,14.78
2022-10-04T09:18:12.590Z,14.81
2022-10-04T09:20:39.672Z,14.82
2022-10-04T09:22:44.171Z,14.86
2022-10-04T09:25:14.146Z,14.89
2022-10-04T09:27:50.042Z,14.93
2022-10-04T09:30:11.406Z,14.97
2022-10-04T09:32:18.641Z,15.04
2022-10-04T09:34:37.323Z,15.11
2022-10-04T09:37:14.440Z,15.16
2022-10-04T09:39:34.689Z,15.19
2022-10-04T09:41:42.111Z,15.29
2022-10-04T09:44:20.896Z,15.36
2022-10-04T09:46:56.305Z,15.45
2022-10-04T09:49:00.476Z,15.49
2022-10-04T09:51:34.415Z,15.54
2022-10-04T09:54:03.650Z,15.58
2022-10-04T09:56:26.799Z,15.61
2022-10-04T09:58:53.283Z,15.65
2022-10-04T10:01:14.184Z,15.72
2022-10-04T10:03:36.748Z,15.74
2022-10-04T10:06:23.256Z,15.75
2022-10-04T10:08:36.323Z,15.78
2022-10-04T10:11:17.623Z,15.86
2022-10-04T10:13:45.500Z,16.00
2022-10-04T10:16:05.376Z,16.10
2022-10-04T10:18:22.184Z,16.14
2022-10-04T10:20:46.850Z,16.21
2022-10-04T10:23:25.242Z,16.32
2022-10-04T10:25:48.892Z,16.37
2022-10-04T10:28:18.230Z,16.48
2022-10-04T10:30:31.184Z,16.59
2022-10-04T10:32:58.946Z,16.77
2022-10-04T10:35:22.802Z,16.94
2022-10-04T10:37:24.960Z,17.12
2022-10-04T10:39:53.811Z,17.28
2022-10-04T10:42:21.507Z,17.49
2022-10-04T10:44:35.508Z,17.73
2022-10-04T10:47:03.208Z,17.97
2022-10-04T10:49:26.105Z,18.32
2022-10-04T10:52:06.224Z,18.67
2022-10-04T10:54:25.242Z,19.14
2022-10-04T10:56:46.920Z,19.74
2022-10-04T10:59:06.066Z,20.25
2022-10-04T11:01:47.221Z,20.58
2022-10-04T11:04:06.968Z,20.81
2022-10-04T11:06:25.404Z,21.16
2022-10-04T11:08:29.956Z,21.68
2022-10-04T11:10:52.366Z,21.92
2022-10-04T11:13:21.600Z,21.84
2022-10-04T11:15:42.003Z,21.71
2022-10-04T11:17:56.317Z,21.67
2022-10-04T11:20:32.020Z,21.88
2022-10-04T11:23:17.758Z,22.09
2022-10-04T11:25:50.728Z,22.25
2022-10-04T11:28:13.908Z,22.36
2022-10-04T11:30:51.392Z,22.34
2022-10-04T11:33:14.679Z,22.69
2022-10-04T11:35:36.894Z,22.84
2022-10-04T11:37:51.013Z,22.85
2022-10-04T11:40:01.804Z,22.82
2022-10-04T11:42:30.516Z,22.47
2022-10-04T11:44:59.843Z,22.17
2022-10-04T11:47:07.820Z,21.97
2022-10-04T11:49:27.810Z,21.74
2022-10-04T11:51:51.219Z,21.53
2022-10-04T11:54:30.224Z,21.54
2022-10-04T11:56:37.783Z,21.36
2022-10-04T11:58:52.492Z,21.18
2022-10-04T12:01:30.390Z,21.23
2022-10-04T12:04:18.076Z,21.52
2022-10-04T12:06:25.648Z,21.55
2022-10-04T12:08:31.834Z,21.34
2022-10-04T12:10:48.315Z,20.86
2022-10-04T12:12:52.552Z,20.48
2022-10-04T12:15:00.133Z,20.22
2022-10-04T12:17:44.397Z,20.20
2022-10-04T12:20:11.880Z,20.07
2022-10-04T12:23:06.420Z,19.83
2022-10-04T12:25:38.825Z,19.67
2022-10-04T12:28:12.258Z,19.40
2022-10-04T12:30:23.859Z,19.34
2022-10-04T12:32:34.337Z,19.35
2022-10-04T12:34:57.881Z,19.32
2022-10-04T12:37:05.588Z,19.26
2022-10-04T12:39:25.305Z,19.21
2022-10-04T12:41:33.118Z,19.25
2022-10-04T12:43:56.693Z,19.14
2022-10-04T12:46:13.098Z,19.02
2022-10-04T12:48:48.240Z,18.74
2022-10-04T12:51:04.000Z,18.65
2022-10-04T12:53:38.165Z,18.61
2022-10-04T12:56:01.608Z,18.52
2022-10-04T12:58:30.138Z,18.44
2022-10-04T13:00:43.814Z,18.38
2022-10-04T13:02:45.405Z,18.37
2022-10-04T13:04:55.163Z,18.40
2022-10-04T13:07:02.409Z,18.38
2022-10-04T13:09:28.097Z,18.35
2022-10-04T13:11:41.632Z,18.28
2022-10-04T13:13:55.294Z,18.22
2022-10-04T13:19:09.576Z,18.23
2022-10-04T13:21:19.712Z,18.20
2022-10-04T13:23:31.876Z,18.20
2022-10-04T13:25:52.233Z,18.18
2022-10-04T13:28:23.460Z,18.17
2022-10-04T13:30:32.512Z,18.12
2022-10-04T13:33:17.676Z,18.03
2022-10-04T13:35:51.534Z,18.04
2022-10-04T13:38:18.059Z,18.08
2022-10-04T13:40:55.534Z,18.08
2022-10-04T13:42:56.905Z,18.11
2022-10-04T13:45:18.359Z,18.12
2022-10-04T13:48:09.297Z,18.09
2022-10-04T13:50:33.604Z,18.02
2022-10-04T13:53:03.076Z,17.99
2022-10-04T13:55:44.591Z,17.98
2022-10-04T13:57:57.396Z,17.99
2022-10-04T14:00:11.520Z,18.01
2022-10-04T14:02:18.951Z,18.00
2022-10-04T14:04:42.216Z,18.00
2022-10-04T14:07:03.873Z,18.03
2022-10-04T14:09:26.526Z,18.05
2022-10-04T14:12:09.535Z,18.07
2022-10-04T14:14:25.537Z,18.05
2022-10-04T14:16:50.415Z,18.01
2022-10-04T14:19:08.373Z,17.94
2022-10-04T14:21:38.033Z,17.96
2022-10-04T14:24:02.720Z,18.00
2022-10-04T14:26:14.440Z,18.03
2022-10-04T14:28:58.842Z,18.02
2022-10-04T14:31:37.244Z,18.01
2022-10-04T14:34:01.338Z,17.96
2022-10-04T14:36:02.749Z,17.88
2022-10-04T14:38:45.576Z,17.83
2022-10-04T14:40:49.950Z,17.82
2022-10-04T14:43:15.235Z,17.84
2022-10-04T14:45:24.490Z,17.85
2022-10-04T14:47:44.263Z,17.86
2022-10-04T14:50:01.056Z,17.88
2022-10-04T14:52:33.169Z,17.89
2022-10-04T14:54:42.270Z,17.91
2022-10-04T14:56:53.325Z,17.89
2022-10-04T14:59:15.072Z,17.89
2022-10-04T15:01:25.235Z,17.88
2022-10-04T15:03:38.965Z,17.82
2022-10-04T15:05:53.010Z,17.77
2022-10-04T15:08:09.868Z,17.78
2022-10-04T15:10:14.000Z,17.77
2022-10-04T15:12:51.883Z,17.75
2022-10-04T15:14:58.523Z,17.71
2022-10-04T15:17:03.492Z,17.68
2022-10-04T15:19:22.666Z,17.65
2022-10-04T15:21:47.114Z,17.64
2022-10-04T15:24:10.663Z,17.63
2022-10-04T15:26:18.209Z,17.63
2022-10-04T15:28:53.999Z,17.62
2022-10-04T15:31:01.644Z,17.59
2022-10-04T15:33:32.039Z,17.58
2022-10-04T15:36:28.826Z,17.57
2022-10-04T15:38:53.686Z,17.54
2022-10-04T15:41:30.705Z,17.52
2022-10-04T15:44:04.887Z,17.46
2022-10-04T15:46:27.944Z,17.39
2022-10-04T15:48:53.951Z,17.37
2022-10-04T15:51:13.906Z,17.32
2022-10-04T15:53:23.341Z,17.28
2022-10-04T15:55:24.747Z,17.21
2022-10-04T15:58:02.992Z,17.15
2022-10-04T16:00:15.561Z,17.02
2022-10-04T16:02:42.675Z,17.03
2022-10-04T16:04:44.801Z,17.03
2022-10-04T16:07:06.484Z,16.99
2022-10-04T16:09:28.873Z,16.98
2022-10-04T16:12:00.623Z,16.94
2022-10-04T16:14:33.873Z,16.88
2022-10-04T16:16:39.826Z,16.86
2022-10-04T16:19:03.045Z,16.80
2022-10-04T16:21:16.907Z,16.76
2022-10-04T16:23:29.403Z,16.70
2022-10-04T16:25:37.810Z,16.64
2022-10-04T16:27:51.285Z,16.60
2022-10-04T16:32:36.653Z,16.47
2022-10-04T16:34:45.503Z,16.45
2022-10-04T16:36:53.990Z,16.45
2022-10-04T16:39:18.343Z,16.42
2022-10-04T16:41:36.599Z,16.32
2022-10-04T16:43:51.600Z,16.26
2022-10-04T16:46:26.257Z,16.21
2022-10-04T16:48:27.775Z,16.15
2022-10-04T16:51:06.586Z,16.10
2022-10-04T16:53:44.773Z,15.99
2022-10-04T16:55:57.506Z,15.95
2022-10-04T16:58:26.820Z,15.85
2022-10-04T17:00:36.786Z,15.81
2022-10-04T17:03:01.161Z,15.76
2022-10-04T17:05:22.544Z,15.70
2022-10-04T17:07:51.349Z,15.66
2022-10-04T17:09:56.353Z,15.61
2022-10-04T17:12:07.071Z,15.57
2022-10-04T17:14:31.171Z,15.49
2022-10-04T17:16:56.106Z,15.42
2022-10-04T17:19:03.252Z,15.38
2022-10-04T17:21:23.759Z,15.32
2022-10-04T17:23:34.024Z,15.28
2022-10-04T17:25:42.731Z,15.23
2022-10-04T17:27:53.466Z,15.19
2022-10-04T17:30:21.387Z,15.13
2022-10-04T17:32:42.652Z,15.05
2022-10-04T17:35:02.698Z,14.98
2022-10-04T17:37:44.592Z,14.90
2022-10-04T17:40:08.696Z,14.84
2022-10-04T17:42:10.357Z,14.78
2022-10-04T17:44:45.252Z,14.71
2022-10-04T17:47:14.867Z,14.64
2022-10-04T17:49:41.469Z,14.62
2022-10-04T17:52:12.143Z,14.55
2022-10-04T17:54:34.556Z,14.50
2022-10-04T17:56:42.265Z,14.45
2022-10-04T17:58:55.764Z,14.38
2022-10-04T18:01:08.273Z,14.34
2022-10-04T18:03:16.569Z,14.30
2022-10-04T18:05:23.777Z,14.27
2022-10-04T18:07:33.041Z,14.22
2022-10-04T18:09:40.589Z,14.18
2022-10-04T18:11:47.239Z,14.12
2022-10-04T18:14:04.442Z,14.07
2022-10-04T18:16:25.558Z,14.03
2022-10-04T18:18:29.926Z,13.98
2022-10-04T18:20:53.466Z,13.94
2022-10-04T18:23:01.074Z,13.88
2022-10-04T18:25:23.249Z,13.83
2022-10-04T18:27:26.699Z,13.78
2022-10-04T18:29:43.140Z,13.70
2022-10-04T18:31:44.685Z,13.67
2022-10-04T18:33:53.868Z,13.64
2022-10-04T18:36:06.347Z,13.59
2022-10-04T18:38:11.261Z,13.57
2022-10-04T18:40:31.978Z,13.53
2022-10-04T18:42:40.853Z,13.52
2022-10-04T18:45:20.918Z,13.49
2022-10-04T18:47:41.350Z,13.47
2022-10-04T18:49:52.515Z,13.48
2022-10-04T18:52:12.614Z,13.45
2022-10-04T18:54:14.197Z,13.46
2022-10-04T18:56:17.241Z,13.46
2022-10-04T18:59:12.469Z,13.44
2022-10-04T19:02:01.636Z,13.37
2022-10-04T19:04:13.810Z,13.35
2022-10-04T19:06:29.796Z,13.31
2022-10-04T19:08:45.711Z,13.26
2022-10-04T19:11:12.526Z,13.22
2022-10-04T19:13:32.338Z,13.21
2022-10-04T19:15:45.985Z,13.16
2022-10-04T19:18:22.507Z,13.11
2022-10-04T19:20:54.541Z,13.05
2022-10-04T19:23:23.980Z,13.02
2022-10-04T19:25:31.473Z,12.99
2022-10-04T19:27:46.280Z,12.95
2022-10-04T19:29:58.208Z,12.93
2022-10-04T19:32:08.935Z,12.89
2022-10-04T19:34:25.573Z,12.87
2022-10-04T19:36:46.313Z,12.82
2022-10-04T19:39:14.468Z,12.79
2022-10-04T19:41:43.774Z,12.76
2022-10-04T19:43:51.213Z,12.73
2022-10-04T19:46:17.180Z,12.72
2022-10-04T19:48:24.799Z,12.69
2022-10-04T19:50:37.738Z,12.65
2022-10-04T19:52:49.302Z,12.62
2022-10-04T19:55:08.897Z,12.57
2022-10-04T19:57:15.105Z,12.56
2022-10-04T19:59:45.880Z,12.50
2022-10-04T20:01:48.685Z,12.50
2022-10-04T20:04:11.568Z,12.49
2022-10-04T20:06:26.182Z,12.47
2022-10-04T20:09:02.410Z,12.43
2022-10-04T20:11:19.436Z,12.42
2022-10-04T20:13:26.209Z,12.41
2022-10-04T20:15:45.169Z,12.37
2022-10-04T20:17:48.943Z,12.34
2022-10-04T20:19:50.414Z,12.33
2022-10-04T20:21:51.861Z,12.32
2022-10-04T20:23:56.605Z,12.30
2022-10-04T20:25:58.350Z,12.28
2022-10-04T20:28:01.794Z,12.29
2022-10-04T20:30:14.243Z,12.29
2022-10-04T20:32:33.975Z,12.27
2022-10-04T20:34:38.587Z,12.28
2022-10-04T20:36:43.296Z,12.35
2022-10-04T20:38:50.617Z,12.38
2022-10-04T20:40:52.114Z,12.40
2022-10-04T20:43:15.517Z,12.43
2022-10-04T20:45:32.731Z,12.44
2022-10-04T20:47:43.705Z,12.48
2022-10-04T20:49:45.629Z,12.50
2022-10-04T20:51:48.673Z,12.51
2022-10-04T20:53:52.822Z,12.52
2022-10-04T20:56:19.212Z,12.49
2022-10-04T20:58:35.377Z,12.49
2022-10-04T21:00:52.516Z,12.49
2022-10-04T21:03:15.476Z,12.47
2022-10-04T21:05:27.058Z,12.47
2022-10-04T21:07:28.541Z,12.46
2022-10-04T21:09:31.463Z,12.45
2022-10-04T21:11:44.628Z,12.44
2022-10-04T21:13:57.576Z,12.43
2022-10-04T21:15:59.575Z,12.42
2022-10-04T21:18:01.074Z,12.41
2022-10-04T21:20:02.836Z,12.39
2022-10-04T21:22:09.061Z,12.38
2022-10-04T21:24:38.481Z,12.34
2022-10-04T21:26:55.213Z,12.32
2022-10-04T21:28:59.672Z,12.32
2022-10-04T21:31:02.876Z,12.30
2022-10-04T21:33:04.311Z,12.30
2022-10-04T21:35:07.691Z,12.29
2022-10-04T21:37:09.120Z,12.27
2022-10-04T21:39:10.574Z,12.25
2022-10-04T21:41:12.005Z,12.26
2022-10-04T21:43:13.510Z,12.26
2022-10-04T21:45:15.053Z,12.26
2022-10-04T21:47:16.861Z,12.27
2022-10-04T21:49:18.301Z,12.28
2022-10-04T21:51:19.708Z,12.27
2022-10-04T21:53:21.453Z,12.26
2022-10-04T21:55:23.299Z,12.24
2022-10-04T21:57:24.788Z,12.23
2022-10-04T21:59:26.298Z,12.21
2022-10-04T22:01:27.835Z,12.21
2022-10-04T22:03:29.467Z,12.21
2022-10-04T22:05:30.923Z,12.21
2022-10-04T22:07:32.360Z,12.21
2022-10-04T22:09:35.665Z,12.20
2022-10-04T22:11:37.435Z,12.18
2022-10-04T22:13:39.406Z,12.17
2022-10-04T22:15:40.906Z,12.17
2022-10-04T22:17:42.356Z,12.18
2022-10-04T22:19:43.803Z,12.17
2022-10-04T22:21:45.235Z,12.20
2022-10-04T22:23:46.850Z,12.24
2022-10-04T22:25:48.960Z,12.26
2022-10-04T22:27:52.026Z,12.27
2022-10-04T22:29:55.948Z,12.27
2022-10-04T22:31:57.496Z,12.26
2022-10-04T22:33:59.296Z,12.24
2022-10-04T22:36:24.023Z,12.23
2022-10-04T22:38:25.694Z,12.22
2022-10-04T22:40:28.654Z,12.22
2022-10-04T22:42:31.865Z,12.21
2022-10-04T22:44:38.332Z,12.20
2022-10-04T22:46:42.539Z,12.18
2022-10-04T22:48:47.926Z,12.20
2022-10-04T22:50:49.858Z,12.20
2022-10-04T22:52:51.386Z,12.20
2022-10-04T22:54:55.224Z,12.21
2022-10-04T22:56:57.527Z,12.21
2022-10-04T22:58:59.689Z,12.21
2022-10-04T23:01:01.285Z,12.20
2022-10-04T23:03:21.426Z,12.19
2022-10-04T23:05:23.102Z,12.18
2022-10-04T23:07:24.691Z,12.18
2022-10-04T23:09:26.261Z,12.17
2022-10-04T23:11:31.359Z,12.16
2022-10-04T23:13:33.264Z,12.17
2022-10-04T23:15:34.886Z,12.17
2022-10-04T23:17:39.531Z,12.17
2022-10-04T23:19:40.971Z,12.15
2022-10-04T23:21:45.052Z,12.14
2022-10-04T23:23:47.765Z,12.13
2022-10-04T23:25:50.177Z,12.11
2022-10-04T23:27:52.019Z,12.10
2022-10-04T23:30:01.657Z,12.08
2022-10-04T23:32:12.521Z,12.05
2022-10-04T23:34:18.817Z,12.05
2022-10-04T23:36:21.547Z,12.03
2022-10-04T23:38:24.815Z,12.01
2022-10-04T23:40:26.497Z,11.99
2022-10-04T23:42:31.880Z,12.00
2022-10-04T23:44:37.933Z,12.01
2022-10-04T23:46:39.669Z,12.01
2022-10-04T23:48:42.605Z,12.02
2022-10-04T23:50:44.149Z,12.02
2022-10-04T23:52:45.679Z,12.01
2022-10-04T23:54:51.666Z,12.02
2022-10-04T23:56:53.466Z,12.00
2022-10-04T23:58:58.615Z,12.00
